sensor_id;sensor_type;location;lat;lon;timestamp;pressure;altitude;pressure_sealevel;temperature;humidity
50103;BME280;35993;52.604;10.078;2023-12-20T00:00:37;100697.78;;;7.31;100.00
50103;BME280;35993;52.604;10.078;2023-12-20T00:03:03;100691.06;;;7.20;100.00
50103;BME280;35993;52.604;10.078;2023-12-20T00:05:29;100702.94;;;7.26;100.00
50103;BME280;35993;52.604;10.078;2023-12-20T00:07:57;100694.22;;;7.24;100.00
50103;BME280;35993;52.604;10.078;2023-12-20T00:10:23;100695.38;;;7.15;100.00
50103;BME280;35993;52.604;10.078;2023-12-20T00:12:48;100704.88;;;7.11;100.00
50103;BME280;35993;52.604;10.078;2023-12-20T00:15:14;100711.59;;;7.15;100.00
50103;BME280;35993;52.604;10.078;2023-12-20T00:17:39;100689.78;;;7.16;100.00
50103;BME280;35993;52.604;10.078;2023-12-20T00:20:05;100691.19;;;7.12;100.00
50103;BME280;35993;52.604;10.078;2023-12-20T00:22:31;100708.81;;;7.08;100.00
50103;BME280;35993;52.604;10.078;2023-12-20T00:24:57;100704.06;;;7.10;100.00
50103;BME280;35993;52.604;10.078;2023-12-20T00:27:22;100701.88;;;6.99;100.00
50103;BME280;35993;52.604;10.078;2023-12-20T00:29:49;100697.91;;;6.95;100.00
50103;BME280;35993;52.604;10.078;2023-12-20T00:32:16;100707.84;;;6.94;100.00
50103;BME280;35993;52.604;10.078;2023-12-20T00:34:43;100705.22;;;7.01;100.00
50103;BME280;35993;52.604;10.078;2023-12-20T00:37:08;100698.28;;;6.92;100.00
50103;BME280;35993;52.604;10.078;2023-12-20T00:39:34;100711.84;;;6.98;100.00
50103;BME280;35993;52.604;10.078;2023-12-20T00:41:59;100711.50;;;6.86;100.00
50103;BME280;35993;52.604;10.078;2023-12-20T00:44:25;100710.75;;;6.93;100.00
50103;BME280;35993;52.604;10.078;2023-12-20T00:46:50;100708.66;;;6.88;100.00
50103;BME280;35993;52.604;10.078;2023-12-20T00:49:16;100695.78;;;6.90;100.00
50103;BME280;35993;52.604;10.078;2023-12-20T00:51:42;100703.66;;;6.92;100.00
50103;BME280;35993;52.604;10.078;2023-12-20T00:54:08;100706.75;;;6.88;100.00
50103;BME280;35993;52.604;10.078;2023-12-20T00:56:35;100701.31;;;6.82;100.00
50103;BME280;35993;52.604;10.078;2023-12-20T00:59:00;100701.47;;;6.80;100.00
50103;BME280;35993;52.604;10.078;2023-12-20T01:01:26;100703.16;;;6.81;100.00
50103;BME280;35993;52.604;10.078;2023-12-20T01:03:51;100700.47;;;6.81;100.00
50103;BME280;35993;52.604;10.078;2023-12-20T01:06:18;100712.59;;;6.70;100.00
50103;BME280;35993;52.604;10.078;2023-12-20T01:08:43;100712.41;;;6.72;100.00
50103;BME280;35993;52.604;10.078;2023-12-20T01:11:09;100718.06;;;6.77;100.00
50103;BME280;35993;52.604;10.078;2023-12-20T01:13:34;100707.84;;;6.72;100.00
50103;BME280;35993;52.604;10.078;2023-12-20T01:16:00;100700.13;;;6.69;100.00
50103;BME280;35993;52.604;10.078;2023-12-20T01:18:26;100691.47;;;6.74;100.00
50103;BME280;35993;52.604;10.078;2023-12-20T01:20:52;100701.91;;;6.62;100.00
50103;BME280;35993;52.604;10.078;2023-12-20T01:23:17;100702.13;;;6.61;100.00
50103;BME280;35993;52.604;10.078;2023-12-20T01:25:43;100701.28;;;6.60;100.00
50103;BME280;35993;52.604;10.078;2023-12-20T01:28:08;100705.00;;;6.59;100.00
50103;BME280;35993;52.604;10.078;2023-12-20T01:30:34;100704.84;;;6.46;100.00
50103;BME280;35993;52.604;10.078;2023-12-20T01:33:00;100703.22;;;6.45;100.00
50103;BME280;35993;52.604;10.078;2023-12-20T01:35:25;100697.34;;;6.41;100.00
50103;BME280;35993;52.604;10.078;2023-12-20T01:37:51;100699.72;;;6.29;100.00
50103;BME280;35993;52.604;10.078;2023-12-20T01:40:17;100709.53;;;6.37;100.00
50103;BME280;35993;52.604;10.078;2023-12-20T01:42:42;100708.28;;;6.18;100.00
50103;BME280;35993;52.604;10.078;2023-12-20T01:45:08;100713.00;;;6.31;100.00
50103;BME280;35993;52.604;10.078;2023-12-20T01:47:34;100704.63;;;6.26;100.00
50103;BME280;35993;52.604;10.078;2023-12-20T01:50:01;100707.53;;;6.24;100.00
50103;BME280;35993;52.604;10.078;2023-12-20T01:52:29;100713.84;;;6.16;100.00
50103;BME280;35993;52.604;10.078;2023-12-20T01:54:55;100708.00;;;6.13;100.00
50103;BME280;35993;52.604;10.078;2023-12-20T01:57:27;100713.41;;;6.13;100.00
50103;BME280;35993;52.604;10.078;2023-12-20T01:59:53;100712.53;;;6.12;100.00
50103;BME280;35993;52.604;10.078;2023-12-20T02:02:18;100704.91;;;6.16;100.00
50103;BME280;35993;52.604;10.078;2023-12-20T02:04:45;100709.94;;;6.19;100.00
50103;BME280;35993;52.604;10.078;2023-12-20T02:07:11;100708.66;;;6.00;100.00
50103;BME280;35993;52.604;10.078;2023-12-20T02:09:38;100711.38;;;6.00;100.00
50103;BME280;35993;52.604;10.078;2023-12-20T02:12:03;100703.38;;;6.06;100.00
50103;BME280;35993;52.604;10.078;2023-12-20T02:14:29;100692.28;;;6.16;100.00
50103;BME280;35993;52.604;10.078;2023-12-20T02:16:55;100685.59;;;5.97;100.00
50103;BME280;35993;52.604;10.078;2023-12-20T02:19:21;100680.13;;;6.05;100.00
50103;BME280;35993;52.604;10.078;2023-12-20T02:21:46;100683.00;;;6.04;100.00
50103;BME280;35993;52.604;10.078;2023-12-20T02:24:12;100678.34;;;5.98;100.00
50103;BME280;35993;52.604;10.078;2023-12-20T02:26:38;100679.09;;;6.06;100.00
50103;BME280;35993;52.604;10.078;2023-12-20T02:29:03;100670.63;;;5.95;100.00
50103;BME280;35993;52.604;10.078;2023-12-20T02:31:29;100673.72;;;6.06;100.00
50103;BME280;35993;52.604;10.078;2023-12-20T02:33:54;100669.06;;;6.00;100.00
50103;BME280;35993;52.604;10.078;2023-12-20T02:36:20;100676.31;;;5.85;100.00
50103;BME280;35993;52.604;10.078;2023-12-20T02:38:46;100673.03;;;5.89;100.00
50103;BME280;35993;52.604;10.078;2023-12-20T02:41:12;100680.22;;;5.82;100.00
50103;BME280;35993;52.604;10.078;2023-12-20T02:43:37;100675.28;;;5.86;100.00
50103;BME280;35993;52.604;10.078;2023-12-20T02:46:03;100687.56;;;5.88;100.00
50103;BME280;35993;52.604;10.078;2023-12-20T02:48:28;100668.84;;;5.87;100.00
50103;BME280;35993;52.604;10.078;2023-12-20T02:50:54;100666.47;;;5.92;100.00
50103;BME280;35993;52.604;10.078;2023-12-20T02:53:20;100672.31;;;5.81;100.00
50103;BME280;35993;52.604;10.078;2023-12-20T02:55:45;100675.44;;;5.84;100.00
50103;BME280;35993;52.604;10.078;2023-12-20T02:58:11;100677.88;;;5.94;100.00
50103;BME280;35993;52.604;10.078;2023-12-20T03:00:36;100675.09;;;5.87;100.00
50103;BME280;35993;52.604;10.078;2023-12-20T03:03:02;100670.63;;;5.95;100.00
50103;BME280;35993;52.604;10.078;2023-12-20T03:05:27;100673.06;;;6.04;100.00
50103;BME280;35993;52.604;10.078;2023-12-20T03:07:53;100663.50;;;6.02;100.00
50103;BME280;35993;52.604;10.078;2023-12-20T03:10:19;100660.88;;;5.94;100.00
50103;BME280;35993;52.604;10.078;2023-12-20T03:12:44;100654.28;;;5.96;100.00
50103;BME280;35993;52.604;10.078;2023-12-20T03:15:10;100648.03;;;5.96;100.00
50103;BME280;35993;52.604;10.078;2023-12-20T03:17:35;100642.22;;;5.92;100.00
50103;BME280;35993;52.604;10.078;2023-12-20T03:20:01;100644.53;;;5.80;100.00
50103;BME280;35993;52.604;10.078;2023-12-20T03:22:27;100647.03;;;5.82;100.00
50103;BME280;35993;52.604;10.078;2023-12-20T03:24:52;100630.88;;;5.82;100.00
50103;BME280;35993;52.604;10.078;2023-12-20T03:27:18;100632.06;;;5.79;100.00
50103;BME280;35993;52.604;10.078;2023-12-20T03:29:44;100623.63;;;5.82;100.00
50103;BME280;35993;52.604;10.078;2023-12-20T03:32:09;100617.78;;;5.94;100.00
50103;BME280;35993;52.604;10.078;2023-12-20T03:34:35;100604.78;;;5.82;100.00
50103;BME280;35993;52.604;10.078;2023-12-20T03:37:00;100596.78;;;5.89;100.00
50103;BME280;35993;52.604;10.078;2023-12-20T03:39:26;100605.25;;;5.86;100.00
50103;BME280;35993;52.604;10.078;2023-12-20T03:41:51;100613.81;;;5.74;100.00
50103;BME280;35993;52.604;10.078;2023-12-20T03:44:17;100611.09;;;5.74;100.00
50103;BME280;35993;52.604;10.078;2023-12-20T03:46:42;100610.63;;;5.71;100.00
50103;BME280;35993;52.604;10.078;2023-12-20T03:49:08;100610.44;;;5.72;100.00
50103;BME280;35993;52.604;10.078;2023-12-20T03:51:34;100603.56;;;5.70;100.00
50103;BME280;35993;52.604;10.078;2023-12-20T03:53:59;100606.75;;;5.58;100.00
50103;BME280;35993;52.604;10.078;2023-12-20T03:56:24;100602.22;;;5.59;100.00
50103;BME280;35993;52.604;10.078;2023-12-20T03:58:50;100602.94;;;5.68;100.00
50103;BME280;35993;52.604;10.078;2023-12-20T04:01:15;100602.69;;;5.63;100.00
50103;BME280;35993;52.604;10.078;2023-12-20T04:03:41;100614.16;;;5.71;100.00
50103;BME280;35993;52.604;10.078;2023-12-20T04:06:07;100607.28;;;5.69;100.00
50103;BME280;35993;52.604;10.078;2023-12-20T04:08:32;100597.91;;;5.80;100.00
50103;BME280;35993;52.604;10.078;2023-12-20T04:10:58;100596.78;;;5.74;100.00
50103;BME280;35993;52.604;10.078;2023-12-20T04:13:23;100598.53;;;5.82;100.00
50103;BME280;35993;52.604;10.078;2023-12-20T04:15:49;100595.88;;;5.67;100.00
50103;BME280;35993;52.604;10.078;2023-12-20T04:18:16;100591.31;;;5.67;100.00
50103;BME280;35993;52.604;10.078;2023-12-20T04:20:41;100587.75;;;5.82;100.00
50103;BME280;35993;52.604;10.078;2023-12-20T04:23:07;100593.72;;;5.77;100.00
50103;BME280;35993;52.604;10.078;2023-12-20T04:25:32;100602.63;;;5.78;100.00
50103;BME280;35993;52.604;10.078;2023-12-20T04:27:58;100585.84;;;5.76;100.00
50103;BME280;35993;52.604;10.078;2023-12-20T04:30:23;100583.84;;;5.84;100.00
50103;BME280;35993;52.604;10.078;2023-12-20T04:32:49;100595.56;;;5.91;100.00
50103;BME280;35993;52.604;10.078;2023-12-20T04:35:14;100595.78;;;5.75;100.00
50103;BME280;35993;52.604;10.078;2023-12-20T04:37:40;100588.22;;;5.85;100.00
50103;BME280;35993;52.604;10.078;2023-12-20T04:40:06;100574.56;;;5.87;100.00
50103;BME280;35993;52.604;10.078;2023-12-20T04:42:33;100578.59;;;5.76;100.00
50103;BME280;35993;52.604;10.078;2023-12-20T04:44:58;100581.81;;;5.86;100.00
50103;BME280;35993;52.604;10.078;2023-12-20T04:47:24;100580.34;;;5.84;100.00
50103;BME280;35993;52.604;10.078;2023-12-20T04:49:49;100578.72;;;5.89;100.00
50103;BME280;35993;52.604;10.078;2023-12-20T04:52:15;100577.97;;;5.96;100.00
50103;BME280;35993;52.604;10.078;2023-12-20T04:54:41;100572.53;;;6.04;100.00
50103;BME280;35993;52.604;10.078;2023-12-20T04:57:06;100571.66;;;6.03;100.00
50103;BME280;35993;52.604;10.078;2023-12-20T04:59:32;100568.41;;;5.93;100.00
50103;BME280;35993;52.604;10.078;2023-12-20T05:01:57;100570.94;;;5.95;100.00
50103;BME280;35993;52.604;10.078;2023-12-20T05:04:24;100569.63;;;6.05;100.00
50103;BME280;35993;52.604;10.078;2023-12-20T05:06:49;100568.06;;;5.96;100.00
50103;BME280;35993;52.604;10.078;2023-12-20T05:09:15;100580.59;;;6.04;100.00
50103;BME280;35993;52.604;10.078;2023-12-20T05:11:41;100578.56;;;5.91;100.00
50103;BME280;35993;52.604;10.078;2023-12-20T05:14:07;100568.97;;;6.03;100.00
50103;BME280;35993;52.604;10.078;2023-12-20T05:16:32;100567.19;;;6.11;100.00
50103;BME280;35993;52.604;10.078;2023-12-20T05:18:58;100566.47;;;6.02;100.00
50103;BME280;35993;52.604;10.078;2023-12-20T05:21:26;100576.50;;;6.08;100.00
50103;BME280;35993;52.604;10.078;2023-12-20T05:23:51;100569.28;;;5.94;100.00
50103;BME280;35993;52.604;10.078;2023-12-20T05:26:17;100560.53;;;6.06;100.00
50103;BME280;35993;52.604;10.078;2023-12-20T05:28:43;100572.72;;;6.02;100.00
50103;BME280;35993;52.604;10.078;2023-12-20T05:31:09;100556.81;;;5.93;100.00
50103;BME280;35993;52.604;10.078;2023-12-20T05:33:34;100556.97;;;6.06;100.00
50103;BME280;35993;52.604;10.078;2023-12-20T05:36:00;100559.41;;;6.01;100.00
50103;BME280;35993;52.604;10.078;2023-12-20T05:38:25;100554.53;;;6.11;100.00
50103;BME280;35993;52.604;10.078;2023-12-20T05:40:51;100558.28;;;6.10;100.00
50103;BME280;35993;52.604;10.078;2023-12-20T05:43:16;100553.66;;;6.04;100.00
50103;BME280;35993;52.604;10.078;2023-12-20T05:45:43;100555.13;;;6.06;100.00
50103;BME280;35993;52.604;10.078;2023-12-20T05:48:09;100556.34;;;6.04;100.00
50103;BME280;35993;52.604;10.078;2023-12-20T05:50:34;100550.19;;;6.10;100.00
50103;BME280;35993;52.604;10.078;2023-12-20T05:53:00;100546.72;;;6.16;100.00
50103;BME280;35993;52.604;10.078;2023-12-20T05:55:26;100553.84;;;6.02;100.00
50103;BME280;35993;52.604;10.078;2023-12-20T05:57:51;100547.25;;;6.05;100.00
50103;BME280;35993;52.604;10.078;2023-12-20T06:00:18;100558.09;;;5.97;100.00
50103;BME280;35993;52.604;10.078;2023-12-20T06:02:43;100557.84;;;6.06;100.00
50103;BME280;35993;52.604;10.078;2023-12-20T06:05:09;100559.75;;;6.13;100.00
50103;BME280;35993;52.604;10.078;2023-12-20T06:07:35;100571.38;;;6.35;100.00
50103;BME280;35993;52.604;10.078;2023-12-20T06:10:00;100569.88;;;6.11;100.00
50103;BME280;35993;52.604;10.078;2023-12-20T06:12:26;100562.53;;;6.19;100.00
50103;BME280;35993;52.604;10.078;2023-12-20T06:14:53;100558.09;;;6.12;100.00
50103;BME280;35993;52.604;10.078;2023-12-20T06:17:19;100565.88;;;6.21;100.00
50103;BME280;35993;52.604;10.078;2023-12-20T06:19:44;100555.41;;;5.97;100.00
50103;BME280;35993;52.604;10.078;2023-12-20T06:22:14;100542.81;;;5.82;100.00
50103;BME280;35993;52.604;10.078;2023-12-20T06:24:39;100538.56;;;5.73;100.00
50103;BME280;35993;52.604;10.078;2023-12-20T06:27:05;100545.06;;;5.64;100.00
50103;BME280;35993;52.604;10.078;2023-12-20T06:29:31;100529.38;;;5.67;100.00
50103;BME280;35993;52.604;10.078;2023-12-20T06:31:56;100532.06;;;5.67;100.00
50103;BME280;35993;52.604;10.078;2023-12-20T06:34:22;100532.53;;;5.71;100.00
50103;BME280;35993;52.604;10.078;2023-12-20T06:36:47;100539.09;;;5.83;100.00
50103;BME280;35993;52.604;10.078;2023-12-20T06:39:13;100531.31;;;5.73;100.00
50103;BME280;35993;52.604;10.078;2023-12-20T06:41:39;100533.81;;;5.75;100.00
50103;BME280;35993;52.604;10.078;2023-12-20T06:44:05;100534.84;;;5.74;100.00
50103;BME280;35993;52.604;10.078;2023-12-20T06:46:31;100523.63;;;5.70;100.00
50103;BME280;35993;52.604;10.078;2023-12-20T06:48:56;100532.53;;;5.71;100.00
50103;BME280;35993;52.604;10.078;2023-12-20T06:51:22;100533.19;;;5.73;100.00
50103;BME280;35993;52.604;10.078;2023-12-20T06:53:51;100544.31;;;5.70;100.00
50103;BME280;35993;52.604;10.078;2023-12-20T06:56:17;100540.06;;;5.76;100.00
50103;BME280;35993;52.604;10.078;2023-12-20T06:58:43;100525.72;;;5.75;100.00
50103;BME280;35993;52.604;10.078;2023-12-20T07:01:12;100540.63;;;5.71;100.00
50103;BME280;35993;52.604;10.078;2023-12-20T07:03:38;100528.22;;;5.77;100.00
50103;BME280;35993;52.604;10.078;2023-12-20T07:06:04;100527.59;;;5.74;100.00
50103;BME280;35993;52.604;10.078;2023-12-20T07:08:29;100523.25;;;5.73;100.00
50103;BME280;35993;52.604;10.078;2023-12-20T07:10:54;100525.19;;;5.80;100.00
50103;BME280;35993;52.604;10.078;2023-12-20T07:13:20;100515.09;;;5.67;100.00
50103;BME280;35993;52.604;10.078;2023-12-20T07:15:45;100506.38;;;6.01;100.00
50103;BME280;35993;52.604;10.078;2023-12-20T07:18:11;100509.69;;;6.25;100.00
50103;BME280;35993;52.604;10.078;2023-12-20T07:20:37;100515.78;;;6.12;100.00
50103;BME280;35993;52.604;10.078;2023-12-20T07:23:02;100502.06;;;6.29;100.00
50103;BME280;35993;52.604;10.078;2023-12-20T07:25:28;100512.00;;;6.28;100.00
50103;BME280;35993;52.604;10.078;2023-12-20T07:27:53;100504.75;;;6.07;100.00
50103;BME280;35993;52.604;10.078;2023-12-20T07:30:19;100509.38;;;6.35;100.00
50103;BME280;35993;52.604;10.078;2023-12-20T07:32:45;100504.53;;;6.30;100.00
50103;BME280;35993;52.604;10.078;2023-12-20T07:35:10;100502.44;;;6.26;100.00
50103;BME280;35993;52.604;10.078;2023-12-20T07:37:36;100512.78;;;6.22;100.00
50103;BME280;35993;52.604;10.078;2023-12-20T07:40:02;100518.63;;;6.26;100.00
50103;BME280;35993;52.604;10.078;2023-12-20T07:42:28;100515.41;;;6.15;100.00
50103;BME280;35993;52.604;10.078;2023-12-20T07:44:54;100518.88;;;6.09;100.00
50103;BME280;35993;52.604;10.078;2023-12-20T07:47:20;100517.81;;;5.88;100.00
50103;BME280;35993;52.604;10.078;2023-12-20T07:49:50;100494.03;;;6.14;100.00
50103;BME280;35993;52.604;10.078;2023-12-20T07:52:17;100511.69;;;6.16;100.00
50103;BME280;35993;52.604;10.078;2023-12-20T07:54:44;100502.81;;;6.22;100.00
50103;BME280;35993;52.604;10.078;2023-12-20T07:57:10;100495.84;;;6.06;100.00
50103;BME280;35993;52.604;10.078;2023-12-20T07:59:36;100498.72;;;6.27;100.00
50103;BME280;35993;52.604;10.078;2023-12-20T08:02:01;100496.09;;;6.33;100.00
50103;BME280;35993;52.604;10.078;2023-12-20T08:04:27;100501.09;;;6.36;100.00
50103;BME280;35993;52.604;10.078;2023-12-20T08:06:53;100502.44;;;6.26;100.00
50103;BME280;35993;52.604;10.078;2023-12-20T08:09:18;100493.97;;;6.29;100.00
50103;BME280;35993;52.604;10.078;2023-12-20T08:11:47;100498.66;;;6.20;100.00
50103;BME280;35993;52.604;10.078;2023-12-20T08:14:13;100484.28;;;6.34;100.00
50103;BME280;35993;52.604;10.078;2023-12-20T08:16:42;100492.94;;;6.30;100.00
50103;BME280;35993;52.604;10.078;2023-12-20T08:19:08;100506.28;;;6.38;100.00
50103;BME280;35993;52.604;10.078;2023-12-20T08:21:34;100495.22;;;6.33;100.00
50103;BME280;35993;52.604;10.078;2023-12-20T08:23:59;100501.13;;;6.43;100.00
50103;BME280;35993;52.604;10.078;2023-12-20T08:26:26;100501.69;;;6.32;100.00
50103;BME280;35993;52.604;10.078;2023-12-20T08:28:51;100500.81;;;6.31;100.00
50103;BME280;35993;52.604;10.078;2023-12-20T08:31:17;100490.16;;;6.45;100.00
50103;BME280;35993;52.604;10.078;2023-12-20T08:33:45;100488.63;;;6.35;100.00
50103;BME280;35993;52.604;10.078;2023-12-20T08:36:11;100491.94;;;6.09;100.00
50103;BME280;35993;52.604;10.078;2023-12-20T08:38:36;100477.16;;;6.27;100.00
50103;BME280;35993;52.604;10.078;2023-12-20T08:41:02;100463.78;;;6.40;100.00
50103;BME280;35993;52.604;10.078;2023-12-20T08:43:39;100462.56;;;6.43;100.00
50103;BME280;35993;52.604;10.078;2023-12-20T08:46:06;100472.16;;;6.02;100.00
50103;BME280;35993;52.604;10.078;2023-12-20T08:48:31;100472.81;;;6.04;100.00
50103;BME280;35993;52.604;10.078;2023-12-20T08:50:57;100465.69;;;6.46;100.00
50103;BME280;35993;52.604;10.078;2023-12-20T08:53:22;100461.78;;;6.49;100.00
50103;BME280;35993;52.604;10.078;2023-12-20T08:55:48;100458.34;;;6.62;100.00
50103;BME280;35993;52.604;10.078;2023-12-20T08:58:14;100449.31;;;6.48;100.00
50103;BME280;35993;52.604;10.078;2023-12-20T09:00:40;100455.19;;;6.30;100.00
50103;BME280;35993;52.604;10.078;2023-12-20T09:03:05;100451.00;;;6.49;100.00
50103;BME280;35993;52.604;10.078;2023-12-20T09:05:31;100458.22;;;6.48;100.00
50103;BME280;35993;52.604;10.078;2023-12-20T09:07:56;100461.44;;;6.59;100.00
50103;BME280;35993;52.604;10.078;2023-12-20T09:10:22;100454.91;;;6.46;100.00
50103;BME280;35993;52.604;10.078;2023-12-20T09:12:52;100442.81;;;6.14;100.00
50103;BME280;35993;52.604;10.078;2023-12-20T09:15:23;100447.53;;;6.05;100.00
50103;BME280;35993;52.604;10.078;2023-12-20T09:17:48;100437.16;;;6.30;100.00
50103;BME280;35993;52.604;10.078;2023-12-20T09:20:15;100429.94;;;6.37;100.00
50103;BME280;35993;52.604;10.078;2023-12-20T09:22:40;100440.66;;;6.52;100.00
50103;BME280;35993;52.604;10.078;2023-12-20T09:25:09;100436.72;;;6.55;100.00
50103;BME280;35993;52.604;10.078;2023-12-20T09:27:35;100454.72;;;6.48;100.00
50103;BME280;35993;52.604;10.078;2023-12-20T09:30:01;100447.38;;;6.70;100.00
50103;BME280;35993;52.604;10.078;2023-12-20T09:32:27;100438.56;;;6.26;100.00
50103;BME280;35993;52.604;10.078;2023-12-20T09:34:52;100443.41;;;6.09;100.00
50103;BME280;35993;52.604;10.078;2023-12-20T09:37:18;100433.22;;;6.04;100.00
50103;BME280;35993;52.604;10.078;2023-12-20T09:39:43;100434.72;;;6.14;100.00
50103;BME280;35993;52.604;10.078;2023-12-20T09:42:11;100432.84;;;6.07;100.00
50103;BME280;35993;52.604;10.078;2023-12-20T09:44:37;100418.88;;;6.54;100.00
50103;BME280;35993;52.604;10.078;2023-12-20T09:47:06;100416.66;;;6.64;100.00
50103;BME280;35993;52.604;10.078;2023-12-20T09:49:33;100409.78;;;6.62;100.00
50103;BME280;35993;52.604;10.078;2023-12-20T09:51:59;100409.91;;;6.82;100.00
50103;BME280;35993;52.604;10.078;2023-12-20T09:54:26;100416.91;;;6.76;100.00
50103;BME280;35993;52.604;10.078;2023-12-20T09:56:53;100408.22;;;6.74;100.00
50103;BME280;35993;52.604;10.078;2023-12-20T09:59:19;100403.34;;;6.56;100.00
50103;BME280;35993;52.604;10.078;2023-12-20T10:01:45;100406.97;;;6.77;100.00
50103;BME280;35993;52.604;10.078;2023-12-20T10:04:12;100412.59;;;6.47;100.00
50103;BME280;35993;52.604;10.078;2023-12-20T10:06:42;100407.91;;;6.62;100.00
50103;BME280;35993;52.604;10.078;2023-12-20T10:09:11;100390.81;;;6.83;100.00
50103;BME280;35993;52.604;10.078;2023-12-20T10:11:38;100392.50;;;6.91;100.00
50103;BME280;35993;52.604;10.078;2023-12-20T10:14:05;100388.88;;;6.70;100.00
50103;BME280;35993;52.604;10.078;2023-12-20T10:16:36;100388.03;;;6.70;100.00
50103;BME280;35993;52.604;10.078;2023-12-20T10:19:02;100377.22;;;6.63;100.00
50103;BME280;35993;52.604;10.078;2023-12-20T10:21:27;100369.34;;;6.68;100.00
50103;BME280;35993;52.604;10.078;2023-12-20T10:23:54;100371.06;;;6.83;100.00
50103;BME280;35993;52.604;10.078;2023-12-20T10:26:24;100363.97;;;6.75;100.00
50103;BME280;35993;52.604;10.078;2023-12-20T10:28:51;100358.44;;;6.90;100.00
50103;BME280;35993;52.604;10.078;2023-12-20T10:31:46;100369.59;;;6.80;100.00
50103;BME280;35993;52.604;10.078;2023-12-20T10:34:11;100355.31;;;6.80;100.00
50103;BME280;35993;52.604;10.078;2023-12-20T10:36:37;100371.47;;;6.73;100.00
50103;BME280;35993;52.604;10.078;2023-12-20T10:39:03;100354.66;;;6.78;100.00
50103;BME280;35993;52.604;10.078;2023-12-20T10:41:32;100350.34;;;6.83;100.00
50103;BME280;35993;52.604;10.078;2023-12-20T10:44:00;100357.53;;;6.69;100.00
50103;BME280;35993;52.604;10.078;2023-12-20T10:46:27;100348.66;;;6.82;100.00
50103;BME280;35993;52.604;10.078;2023-12-20T10:48:54;100363.75;;;6.70;100.00
50103;BME280;35993;52.604;10.078;2023-12-20T10:51:20;100358.19;;;6.71;100.00
50103;BME280;35993;52.604;10.078;2023-12-20T10:53:48;100356.31;;;6.79;100.00
50103;BME280;35993;52.604;10.078;2023-12-20T10:56:16;100342.63;;;6.80;100.00
50103;BME280;35993;52.604;10.078;2023-12-20T10:58:43;100339.69;;;6.75;100.00
50103;BME280;35993;52.604;10.078;2023-12-20T11:01:09;100351.94;;;6.71;100.00
50103;BME280;35993;52.604;10.078;2023-12-20T11:03:36;100343.69;;;6.79;100.00
50103;BME280;35993;52.604;10.078;2023-12-20T11:08:59;100331.22;;;6.78;100.00
50103;BME280;35993;52.604;10.078;2023-12-20T11:14:14;100338.19;;;6.59;100.00
50103;BME280;35993;52.604;10.078;2023-12-20T11:16:41;100313.56;;;6.76;100.00
50103;BME280;35993;52.604;10.078;2023-12-20T11:19:06;100331.44;;;6.77;100.00
50103;BME280;35993;52.604;10.078;2023-12-20T11:21:33;100340.13;;;6.72;100.00
50103;BME280;35993;52.604;10.078;2023-12-20T11:24:03;100340.53;;;6.69;100.00
50103;BME280;35993;52.604;10.078;2023-12-20T11:26:29;100354.03;;;6.76;100.00
50103;BME280;35993;52.604;10.078;2023-12-20T11:32:01;100373.28;;;6.66;100.00
50103;BME280;35993;52.604;10.078;2023-12-20T11:34:29;100387.44;;;6.75;100.00
50103;BME280;35993;52.604;10.078;2023-12-20T11:37:00;100405.59;;;6.24;100.00
50103;BME280;35993;52.604;10.078;2023-12-20T11:39:28;100403.03;;;6.16;100.00
50103;BME280;35993;52.604;10.078;2023-12-20T11:41:55;100395.56;;;5.68;100.00
50103;BME280;35993;52.604;10.078;2023-12-20T11:44:23;100378.44;;;5.54;100.00
50103;BME280;35993;52.604;10.078;2023-12-20T11:46:51;100372.00;;;5.12;100.00
50103;BME280;35993;52.604;10.078;2023-12-20T11:49:16;100364.47;;;5.44;100.00
50103;BME280;35993;52.604;10.078;2023-12-20T11:51:42;100338.06;;;5.32;100.00
50103;BME280;35993;52.604;10.078;2023-12-20T11:54:09;100340.81;;;5.39;100.00
50103;BME280;35993;52.604;10.078;2023-12-20T11:56:36;100334.47;;;5.47;100.00
50103;BME280;35993;52.604;10.078;2023-12-20T11:59:02;100332.06;;;5.58;100.00
50103;BME280;35993;52.604;10.078;2023-12-20T12:01:28;100345.88;;;5.70;100.00
50103;BME280;35993;52.604;10.078;2023-12-20T12:04:04;100334.84;;;5.65;100.00
50103;BME280;35993;52.604;10.078;2023-12-20T12:06:29;100346.88;;;5.26;100.00
50103;BME280;35993;52.604;10.078;2023-12-20T12:08:55;100342.25;;;5.20;100.00
50103;BME280;35993;52.604;10.078;2023-12-20T12:11:21;100335.09;;;5.49;100.00
50103;BME280;35993;52.604;10.078;2023-12-20T12:13:47;100329.81;;;5.62;100.00
50103;BME280;35993;52.604;10.078;2023-12-20T12:16:17;100324.66;;;5.61;100.00
50103;BME280;35993;52.604;10.078;2023-12-20T12:18:44;100324.69;;;5.67;100.00
50103;BME280;35993;52.604;10.078;2023-12-20T12:21:10;100331.34;;;5.71;100.00
50103;BME280;35993;52.604;10.078;2023-12-20T12:23:36;100339.31;;;5.80;100.00
50103;BME280;35993;52.604;10.078;2023-12-20T12:26:04;100332.41;;;5.49;100.00
50103;BME280;35993;52.604;10.078;2023-12-20T12:28:30;100335.47;;;5.46;100.00
50103;BME280;35993;52.604;10.078;2023-12-20T12:30:58;100335.34;;;5.76;100.00
50103;BME280;35993;52.604;10.078;2023-12-20T12:33:27;100337.38;;;5.73;100.00
50103;BME280;35993;52.604;10.078;2023-12-20T12:35:53;100341.97;;;5.73;100.00
50103;BME280;35993;52.604;10.078;2023-12-20T12:38:22;100339.25;;;5.73;100.00
50103;BME280;35993;52.604;10.078;2023-12-20T12:40:49;100334.16;;;5.85;100.00
50103;BME280;35993;52.604;10.078;2023-12-20T12:43:15;100327.69;;;5.57;100.00